createdAt,value
2018-11-21T00:00:34.654Z,1.70
2018-11-21T00:03:03.896Z,1.60
2018-11-21T00:05:33.140Z,1.70
2018-11-21T00:08:02.662Z,1.70
2018-11-21T00:10:31.959Z,1.70
2018-11-21T00:13:01.259Z,1.60
2018-11-21T00:15:30.686Z,1.60
2018-11-21T00:18:00.090Z,1.50
2018-11-21T00:20:29.310Z,1.50
2018-11-21T00:23:01.640Z,1.50
2018-11-21T00:25:30.879Z,1.50
2018-11-21T00:28:00.104Z,1.40
2018-11-21T00:30:29.532Z,1.40
2018-11-21T00:32:58.831Z,1.40
2018-11-21T00:35:28.064Z,1.30
2018-11-21T00:37:57.403Z,1.30
2018-11-21T00:40:26.658Z,1.30
2018-11-21T00:42:55.933Z,1.30
2018-11-21T00:45:27.921Z,1.20
2018-11-21T00:47:57.229Z,1.20
2018-11-21T00:50:26.497Z,1.20
2018-11-21T00:52:56.021Z,1.20
2018-11-21T00:55:25.244Z,1.20
2018-11-21T00:57:54.604Z,1.20
2018-11-21T01:00:24.124Z,1.20
2018-11-21T01:02:53.416Z,1.20
2018-11-21T01:05:22.675Z,1.20
2018-11-21T01:07:51.996Z,1.20
2018-11-21T01:10:21.230Z,1.10
2018-11-21T01:12:50.605Z,1.10
2018-11-21T01:15:19.824Z,1.00
2018-11-21T01:17:49.045Z,0.90
2018-11-21T01:20:18.377Z,0.90
2018-11-21T01:22:50.523Z,0.80
2018-11-21T01:25:16.886Z,0.70
2018-11-21T01:27:46.232Z,0.60
2018-11-21T01:30:15.451Z,0.60
2018-11-21T01:32:44.675Z,0.70
2018-11-21T01:35:13.986Z,0.70
2018-11-21T01:37:43.257Z,0.60
2018-11-21T01:40:12.701Z,0.60
2018-11-21T01:42:41.934Z,0.70
2018-11-21T01:45:11.219Z,0.70
2018-11-21T01:47:40.589Z,0.70
2018-11-21T01:50:10.207Z,0.60
2018-11-21T01:52:39.737Z,0.60
2018-11-21T01:55:08.987Z,0.70
2018-11-21T01:57:38.314Z,0.70
2018-11-21T02:00:09.850Z,0.60
2018-11-21T02:02:39.233Z,0.70
2018-11-21T02:05:08.655Z,0.70
2018-11-21T02:07:38.082Z,0.60
2018-11-21T02:10:08.062Z,0.60
2018-11-21T02:12:37.397Z,0.50
2018-11-21T02:15:06.908Z,0.50
2018-11-21T02:17:36.295Z,0.50
2018-11-21T02:20:07.073Z,0.50
2018-11-21T02:22:36.386Z,0.40
2018-11-21T02:25:06.678Z,0.40
2018-11-21T02:27:36.157Z,0.40
2018-11-21T02:30:06.305Z,0.60
2018-11-21T02:32:35.585Z,0.70
2018-11-21T02:35:05.772Z,0.70
2018-11-21T02:37:35.475Z,0.80
2018-11-21T02:40:04.917Z,0.80
2018-11-21T02:42:34.218Z,0.80
2018-11-21T02:45:03.599Z,0.80
2018-11-21T02:47:32.864Z,0.80
2018-11-21T02:50:02.143Z,0.80
2018-11-21T02:52:31.634Z,0.70
2018-11-21T02:55:00.860Z,0.70
2018-11-21T02:57:31.430Z,0.60
2018-11-21T03:00:09.522Z,0.60
2018-11-21T03:02:38.770Z,0.80
2018-11-21T03:05:08.032Z,0.80
2018-11-21T03:07:37.300Z,0.70
2018-11-21T03:10:07.051Z,0.80
2018-11-21T03:12:36.471Z,0.80
2018-11-21T03:15:05.959Z,0.80
2018-11-21T03:17:35.287Z,0.80
2018-11-21T03:20:04.685Z,0.70
2018-11-21T03:22:33.910Z,0.70
2018-11-21T03:25:03.144Z,0.70
2018-11-21T03:27:32.571Z,0.80
2018-11-21T03:30:01.874Z,0.90
2018-11-21T03:32:31.269Z,0.90
2018-11-21T03:35:00.728Z,0.70
2018-11-21T03:37:32.835Z,0.70
2018-11-21T03:40:02.156Z,0.80
2018-11-21T03:42:31.670Z,0.90
2018-11-21T03:45:01.009Z,0.90
2018-11-21T03:47:30.445Z,0.70
2018-11-21T03:49:59.810Z,0.60
2018-11-21T03:52:29.076Z,0.60
2018-11-21T03:54:58.563Z,0.60
2018-11-21T03:57:27.798Z,0.60
2018-11-21T03:59:57.043Z,0.60
2018-11-21T04:02:26.466Z,0.50
2018-11-21T04:04:55.782Z,0.40
2018-11-21T04:07:25.020Z,0.40
2018-11-21T04:09:54.467Z,0.40
2018-11-21T04:12:23.800Z,0.30
2018-11-21T04:14:53.067Z,0.30
2018-11-21T04:17:22.469Z,0.30
2018-11-21T04:19:51.798Z,0.50
2018-11-21T04:22:21.036Z,0.50
2018-11-21T04:24:50.475Z,0.50
2018-11-21T04:27:19.696Z,0.50
2018-11-21T04:29:48.961Z,0.50
2018-11-21T04:32:18.306Z,0.50
2018-11-21T04:34:47.549Z,0.40
2018-11-21T04:37:16.836Z,0.30
2018-11-21T04:39:46.397Z,0.20
2018-11-21T04:42:15.630Z,0.20
2018-11-21T04:44:44.868Z,0.20
2018-11-21T04:47:14.502Z,0.30
2018-11-21T04:49:43.890Z,0.40
2018-11-21T04:52:13.186Z,0.50
2018-11-21T04:54:42.595Z,0.50
2018-11-21T04:57:11.836Z,0.60
2018-11-21T04:59:41.183Z,0.60
2018-11-21T05:02:10.593Z,0.70
2018-11-21T05:04:39.830Z,0.70
2018-11-21T05:07:09.049Z,0.70
2018-11-21T05:09:38.589Z,0.80
2018-11-21T05:12:07.853Z,0.80
2018-11-21T05:14:37.115Z,0.90
2018-11-21T05:17:06.549Z,1.00
2018-11-21T05:19:35.798Z,1.10
2018-11-21T05:22:05.190Z,1.10
2018-11-21T05:24:34.462Z,1.00
2018-11-21T05:27:03.699Z,0.90
2018-11-21T05:29:33.078Z,0.90
2018-11-21T05:32:02.538Z,1.10
2018-11-21T05:34:31.895Z,1.20
2018-11-21T05:37:01.320Z,1.20
2018-11-21T05:39:30.706Z,1.20
2018-11-21T05:41:59.961Z,1.20
2018-11-21T05:44:31.537Z,1.20
2018-11-21T05:46:59.094Z,1.30
2018-11-21T05:49:28.337Z,1.20
2018-11-21T05:51:57.984Z,1.40
2018-11-21T05:54:27.195Z,1.30
2018-11-21T05:56:56.436Z,1.30
2018-11-21T05:59:25.825Z,1.40
2018-11-21T06:01:55.115Z,1.30
2018-11-21T06:04:24.343Z,1.30
2018-11-21T06:06:53.727Z,1.40
2018-11-21T06:09:22.985Z,1.40
2018-11-21T06:11:52.310Z,1.40
2018-11-21T06:14:21.833Z,1.40
2018-11-21T06:16:51.091Z,1.40
2018-11-21T06:19:20.478Z,1.30
2018-11-21T06:21:49.838Z,1.30
2018-11-21T06:24:19.223Z,1.30
2018-11-21T06:26:58.688Z,1.30
2018-11-21T06:29:28.054Z,1.40
2018-11-21T06:31:59.947Z,1.40
2018-11-21T06:34:32.731Z,1.40
2018-11-21T06:36:57.412Z,1.40
2018-11-21T06:39:26.923Z,1.50
2018-11-21T06:41:57.357Z,1.40
2018-11-21T06:44:26.683Z,1.40
2018-11-21T06:46:56.074Z,1.30
2018-11-21T06:49:25.426Z,1.30
2018-11-21T06:51:55.196Z,1.30
2018-11-21T06:54:24.469Z,1.40
2018-11-21T06:56:53.734Z,1.50
2018-11-21T06:59:23.093Z,1.50
2018-11-21T07:01:52.456Z,1.40
2018-11-21T07:04:24.542Z,1.50
2018-11-21T07:06:53.771Z,1.50
2018-11-21T07:09:23.138Z,1.50
2018-11-21T07:11:52.629Z,1.60
2018-11-21T07:14:21.882Z,1.60
2018-11-21T07:16:51.214Z,1.60
2018-11-21T07:19:20.740Z,1.50
2018-11-21T07:21:49.987Z,1.70
2018-11-21T07:24:19.244Z,1.50
2018-11-21T07:26:48.754Z,1.40
2018-11-21T07:29:18.028Z,1.50
2018-11-21T07:31:47.412Z,1.40
2018-11-21T07:34:16.886Z,1.50
2018-11-21T07:36:48.999Z,1.70
2018-11-21T07:39:18.253Z,1.70
2018-11-21T07:41:47.709Z,1.50
2018-11-21T07:44:16.974Z,1.60
2018-11-21T07:46:46.242Z,1.60
2018-11-21T07:49:15.717Z,1.60
2018-11-21T07:51:44.967Z,1.50
2018-11-21T07:54:14.225Z,1.60
2018-11-21T07:57:29.388Z,1.60
2018-11-21T08:01:04.942Z,1.60
2018-11-21T08:03:54.007Z,1.70
2018-11-21T08:06:50.937Z,1.80
2018-11-21T08:09:48.547Z,1.70
2018-11-21T08:12:36.915Z,1.80
2018-11-21T08:15:29.390Z,1.90
2018-11-21T08:18:33.010Z,1.70
2018-11-21T08:21:30.734Z,1.70
2018-11-21T08:24:08.443Z,1.80
2018-11-21T08:27:12.032Z,2.00
2018-11-21T08:29:41.271Z,1.80
2018-11-21T08:32:10.551Z,2.00
2018-11-21T08:34:39.878Z,1.90
2018-11-21T08:37:09.652Z,1.90
2018-11-21T08:39:39.185Z,2.00
2018-11-21T08:42:08.468Z,1.90
2018-11-21T08:44:37.799Z,1.90
2018-11-21T08:47:07.203Z,1.90
2018-11-21T08:49:36.483Z,1.80
2018-11-21T08:52:06.251Z,1.90
2018-11-21T08:54:35.832Z,1.80
2018-11-21T08:57:05.561Z,1.90
2018-11-21T08:59:35.020Z,1.80
2018-11-21T09:02:04.483Z,1.90
2018-11-21T09:04:33.773Z,1.90
2018-11-21T09:07:03.299Z,1.90
2018-11-21T09:09:32.751Z,1.90
2018-11-21T09:12:01.976Z,1.90
2018-11-21T09:14:31.212Z,1.90
2018-11-21T09:17:00.657Z,1.90
2018-11-21T09:19:29.987Z,2.00
2018-11-21T09:21:59.345Z,2.00
2018-11-21T09:24:28.856Z,2.00
2018-11-21T09:26:58.177Z,2.00
2018-11-21T09:29:27.394Z,2.20
2018-11-21T09:31:59.620Z,2.30
2018-11-21T09:34:28.879Z,2.30
2018-11-21T09:36:58.146Z,2.30
2018-11-21T09:39:27.392Z,2.40
2018-11-21T09:41:56.654Z,2.30
2018-11-21T09:44:26.335Z,2.30
2018-11-21T09:46:55.602Z,2.10
2018-11-21T09:49:24.992Z,2.40
2018-11-21T09:51:54.649Z,2.30
2018-11-21T09:54:23.916Z,2.10
2018-11-21T09:56:53.175Z,2.30
2018-11-21T09:59:23.138Z,2.30
2018-11-21T10:02:28.709Z,2.30
2018-11-21T10:04:58.107Z,2.20
2018-11-21T10:07:27.580Z,2.50
2018-11-21T10:09:59.644Z,2.40
2018-11-21T10:12:29.409Z,2.30
2018-11-21T10:14:58.742Z,2.20
2018-11-21T10:17:28.058Z,2.20
2018-11-21T10:19:57.716Z,2.30
2018-11-21T10:22:27.043Z,2.40
2018-11-21T10:24:59.084Z,2.40
2018-11-21T10:27:29.975Z,2.40
2018-11-21T10:29:59.448Z,2.30
2018-11-21T10:32:28.940Z,2.40
2018-11-21T10:34:58.311Z,2.20
2018-11-21T10:37:27.561Z,2.20
2018-11-21T10:39:57.074Z,2.40
2018-11-21T10:42:26.346Z,2.30
2018-11-21T10:44:55.700Z,2.30
2018-11-21T10:47:25.206Z,2.30
2018-11-21T10:49:54.823Z,2.40
2018-11-21T10:52:24.099Z,2.60
2018-11-21T10:54:53.593Z,2.70
2018-11-21T10:57:22.863Z,2.70
2018-11-21T10:59:52.139Z,2.50
2018-11-21T11:02:39.297Z,2.60
2018-11-21T11:05:23.563Z,2.60
2018-11-21T11:08:27.504Z,2.60
2018-11-21T11:11:24.862Z,2.50
2018-11-21T11:14:11.779Z,2.50
2018-11-21T11:17:00.248Z,2.70
2018-11-21T11:19:57.548Z,2.40
2018-11-21T11:22:48.491Z,2.40
2018-11-21T11:25:35.912Z,2.50
2018-11-21T11:28:24.479Z,2.70
2018-11-21T11:31:12.509Z,2.40
2018-11-21T11:34:02.214Z,2.50
2018-11-21T11:36:49.835Z,2.40
2018-11-21T11:39:44.093Z,2.50
2018-11-21T11:42:32.771Z,2.60
2018-11-21T11:45:24.077Z,2.40
2018-11-21T11:48:15.629Z,2.50
2018-11-21T11:51:04.643Z,2.50
2018-11-21T11:54:02.156Z,2.60
2018-11-21T11:56:54.890Z,2.50
2018-11-21T11:59:47.248Z,2.70
2018-11-21T12:02:38.742Z,2.70
2018-11-21T12:05:26.673Z,2.30
2018-11-21T12:08:14.100Z,2.50
2018-11-21T12:11:01.199Z,2.60
2018-11-21T12:13:58.716Z,2.80
2018-11-21T12:16:56.340Z,2.80
2018-11-21T12:19:41.287Z,2.60
2018-11-21T12:22:28.437Z,2.50
2018-11-21T12:25:15.985Z,2.50
2018-11-21T12:28:04.786Z,2.60
2018-11-21T12:31:14.661Z,2.60
2018-11-21T12:34:18.144Z,2.60
2018-11-21T12:37:09.156Z,2.40
2018-11-21T12:39:56.600Z,2.60
2018-11-21T12:42:43.689Z,2.50
2018-11-21T12:45:31.042Z,2.50
2018-11-21T12:48:25.659Z,2.50
2018-11-21T12:51:23.106Z,2.60
2018-11-21T12:54:10.196Z,2.70
2018-11-21T12:57:08.981Z,2.60
2018-11-21T13:00:00.218Z,2.50
2018-11-21T13:03:00.707Z,2.70
2018-11-21T13:05:47.531Z,2.60
2018-11-21T13:08:36.110Z,2.60
2018-11-21T13:11:23.206Z,2.50
2018-11-21T13:14:09.463Z,2.60
2018-11-21T13:16:56.623Z,2.50
2018-11-21T13:19:51.331Z,2.60
2018-11-21T13:22:37.808Z,2.50
2018-11-21T13:25:24.878Z,2.60
2018-11-21T13:28:11.866Z,2.60
2018-11-21T13:31:09.661Z,2.70
2018-11-21T13:33:58.277Z,2.70
2018-11-21T13:36:49.804Z,2.60
2018-11-21T13:39:31.162Z,2.70
2018-11-21T13:42:24.525Z,2.70
2018-11-21T13:45:32.448Z,2.80
2018-11-21T13:48:20.612Z,2.70
2018-11-21T13:51:21.150Z,2.60
2018-11-21T13:54:08.599Z,2.60
2018-11-21T13:56:37.839Z,2.60
2018-11-21T13:59:07.300Z,2.80
2018-11-21T14:01:36.780Z,2.60
2018-11-21T14:04:06.079Z,2.70
2018-11-21T14:06:35.513Z,2.60
2018-11-21T14:09:08.341Z,2.60
2018-11-21T14:11:37.804Z,2.70
2018-11-21T14:14:07.542Z,2.70
2018-11-21T14:16:39.968Z,2.60
2018-11-21T14:19:09.206Z,2.60
2018-11-21T14:21:38.666Z,2.60
2018-11-21T14:24:10.531Z,2.60
2018-11-21T14:26:37.934Z,2.70
2018-11-21T14:29:07.434Z,2.50
2018-11-21T14:31:39.935Z,2.70
2018-11-21T14:34:10.917Z,2.60
2018-11-21T14:36:38.555Z,2.60
2018-11-21T14:39:12.767Z,2.90
2018-11-21T14:41:43.057Z,2.70
2018-11-21T14:44:12.374Z,2.70
2018-11-21T14:46:43.169Z,2.70
2018-11-21T14:49:12.668Z,2.80
2018-11-21T14:51:41.941Z,2.80
2018-11-21T14:54:11.581Z,2.90
2018-11-21T14:56:40.930Z,2.90
2018-11-21T14:59:10.408Z,2.60
2018-11-21T15:01:39.845Z,2.70
2018-11-21T15:04:09.339Z,2.70
2018-11-21T15:06:58.066Z,2.70
2018-11-21T15:09:30.230Z,2.80
2018-11-21T15:11:59.481Z,2.70
2018-11-21T15:14:28.986Z,2.70
2018-11-21T15:16:58.399Z,2.70
2018-11-21T15:19:27.674Z,2.60
2018-11-21T15:21:57.304Z,2.60
2018-11-21T15:24:26.707Z,2.70
2018-11-21T15:26:55.996Z,2.70
2018-11-21T15:29:28.392Z,2.50
2018-11-21T15:31:57.981Z,2.60
2018-11-21T15:34:30.176Z,2.60
2018-11-21T15:36:59.834Z,2.60
2018-11-21T15:39:29.163Z,2.60
2018-11-21T15:41:58.429Z,2.50
2018-11-21T15:44:27.957Z,2.60
2018-11-21T15:46:57.390Z,2.70
2018-11-21T15:49:26.739Z,2.60
2018-11-21T15:52:01.335Z,2.70
2018-11-21T15:54:25.666Z,2.70
2018-11-21T15:56:55.054Z,2.60
2018-11-21T15:59:24.457Z,2.70
2018-11-21T16:01:53.848Z,2.80
2018-11-21T16:04:23.112Z,2.80
2018-11-21T16:06:52.577Z,2.80
2018-11-21T16:09:21.831Z,2.70
2018-11-21T16:11:51.134Z,2.60
2018-11-21T16:14:20.581Z,2.60
2018-11-21T16:16:49.874Z,2.60
2018-11-21T16:19:19.124Z,2.50
2018-11-21T16:21:48.670Z,2.50
2018-11-21T16:24:18.070Z,2.60
2018-11-21T16:26:47.325Z,2.70
2018-11-21T16:29:17.026Z,2.60
2018-11-21T16:31:46.393Z,2.50
2018-11-21T16:34:15.824Z,2.70
2018-11-21T16:36:45.392Z,2.70
2018-11-21T16:39:14.665Z,2.70
2018-11-21T16:41:43.944Z,2.70
2018-11-21T16:44:13.503Z,2.60
2018-11-21T16:46:42.750Z,2.70
2018-11-21T16:49:12.075Z,2.70
2018-11-21T16:51:41.513Z,2.70
2018-11-21T16:54:10.935Z,2.80
2018-11-21T16:56:40.183Z,2.50
2018-11-21T16:59:12.190Z,2.60
2018-11-21T17:01:43.709Z,2.50
2018-11-21T17:04:12.964Z,2.60
2018-11-21T17:06:42.413Z,2.60
2018-11-21T17:09:13.029Z,2.50
2018-11-21T17:11:42.367Z,2.50
2018-11-21T17:14:11.960Z,2.60
2018-11-21T17:16:41.212Z,2.60
2018-11-21T17:19:10.439Z,2.70
2018-11-21T17:21:39.708Z,2.60
2018-11-21T17:24:11.068Z,2.50
2018-11-21T17:26:40.511Z,2.60
2018-11-21T17:29:09.766Z,2.60
2018-11-21T17:31:39.194Z,2.60
2018-11-21T17:34:08.494Z,2.60
2018-11-21T17:36:37.738Z,2.60
2018-11-21T17:39:10.442Z,2.60
2018-11-21T17:41:39.808Z,2.60
2018-11-21T17:44:09.034Z,2.50
2018-11-21T17:46:38.304Z,2.50
2018-11-21T17:49:07.986Z,2.60
2018-11-21T17:51:37.495Z,2.40
2018-11-21T17:54:07.102Z,2.50
2018-11-21T17:56:36.447Z,2.50
2018-11-21T17:59:05.920Z,2.50
2018-11-21T18:01:37.420Z,2.50
2018-11-21T18:04:06.752Z,2.50
2018-11-21T18:06:38.835Z,2.50
2018-11-21T18:09:10.890Z,2.60
2018-11-21T18:11:40.383Z,2.60
2018-11-21T18:14:09.924Z,2.60
2018-11-21T18:16:39.154Z,2.50
2018-11-21T18:19:08.378Z,2.50
2018-11-21T18:21:37.803Z,2.60
2018-11-21T18:24:07.111Z,2.60
2018-11-21T18:26:39.374Z,2.50
2018-11-21T18:29:11.707Z,2.50
2018-11-21T18:31:38.037Z,2.50
2018-11-21T18:34:07.372Z,2.40
2018-11-21T18:36:36.771Z,2.40
2018-11-21T18:39:09.286Z,2.50
2018-11-21T18:41:40.375Z,2.40
2018-11-21T18:44:08.352Z,2.50
2018-11-21T18:46:37.659Z,2.40
2018-11-21T18:49:07.175Z,2.40
2018-11-21T18:51:36.479Z,2.40
2018-11-21T18:54:05.798Z,2.40
2018-11-21T18:57:02.329Z,2.70
2018-11-21T18:59:41.260Z,2.60
2018-11-21T19:02:10.632Z,2.60
2018-11-21T19:04:39.945Z,2.60
2018-11-21T19:07:09.189Z,2.60
2018-11-21T19:09:38.645Z,2.70
2018-11-21T19:12:07.902Z,2.60
2018-11-21T19:14:37.362Z,2.50
2018-11-21T19:17:07.263Z,2.60
2018-11-21T19:19:36.555Z,2.70
2018-11-21T19:22:05.948Z,2.50
2018-11-21T19:24:35.458Z,2.50
2018-11-21T19:27:04.811Z,2.50
2018-11-21T19:29:34.040Z,2.50
2018-11-21T19:32:03.464Z,2.50
2018-11-21T19:34:32.721Z,2.50
2018-11-21T19:37:04.299Z,2.50
2018-11-21T19:39:33.852Z,2.50
2018-11-21T19:42:03.113Z,2.50
2018-11-21T19:44:32.354Z,2.50
2018-11-21T19:47:01.752Z,2.50
2018-11-21T19:49:33.460Z,2.50
2018-11-21T19:52:00.283Z,2.40
2018-11-21T19:54:29.944Z,2.50
2018-11-21T19:56:59.178Z,2.40
2018-11-21T19:59:28.438Z,2.40
2018-11-21T20:01:57.787Z,2.40
2018-11-21T20:04:27.186Z,2.30
2018-11-21T20:06:56.581Z,2.40
2018-11-21T20:09:25.954Z,2.40
2018-11-21T20:11:55.197Z,2.40
2018-11-21T20:14:24.495Z,2.30
2018-11-21T20:16:53.848Z,2.30
2018-11-21T20:19:23.595Z,2.40
2018-11-21T20:21:52.824Z,2.30
2018-11-21T20:24:22.256Z,2.30
2018-11-21T20:26:51.482Z,2.30
2018-11-21T20:29:20.767Z,2.20
2018-11-21T20:31:50.155Z,2.30
2018-11-21T20:34:19.384Z,2.30
2018-11-21T20:36:48.631Z,2.30
2018-11-21T20:39:18.163Z,2.30
2018-11-21T20:41:47.406Z,2.30
2018-11-21T20:44:17.693Z,2.30
2018-11-21T20:46:47.188Z,2.30
2018-11-21T20:49:16.502Z,2.20
2018-11-21T20:51:45.760Z,2.30
2018-11-21T20:54:18.021Z,2.20
2018-11-21T20:56:44.587Z,2.30
2018-11-21T20:59:13.804Z,2.30
2018-11-21T21:01:43.194Z,2.30
2018-11-21T21:04:12.433Z,2.30
2018-11-21T21:06:41.795Z,2.30
2018-11-21T21:09:13.765Z,2.30
2018-11-21T21:11:43.008Z,2.30
2018-11-21T21:14:14.123Z,2.30
2018-11-21T21:16:41.665Z,2.30
2018-11-21T21:19:11.013Z,2.30
2018-11-21T21:21:40.235Z,2.30
2018-11-21T21:24:09.765Z,2.30
2018-11-21T21:26:39.064Z,2.40
2018-11-21T21:29:08.401Z,2.40
2018-11-21T21:31:40.733Z,2.30
2018-11-21T21:34:10.025Z,2.30
2018-11-21T21:36:39.283Z,2.30
2018-11-21T21:39:10.575Z,2.30
2018-11-21T21:41:39.830Z,2.30
2018-11-21T21:44:09.194Z,2.30
2018-11-21T21:46:38.578Z,2.30
2018-11-21T21:49:07.841Z,2.20
2018-11-21T21:51:37.401Z,2.30
2018-11-21T21:54:06.784Z,2.30
2018-11-21T21:56:36.005Z,2.10
2018-11-21T21:59:05.554Z,2.30
2018-11-21T22:01:35.410Z,2.20
2018-11-21T22:04:04.971Z,2.20
2018-11-21T22:06:34.314Z,2.00
2018-11-21T22:09:08.187Z,2.10
2018-11-21T22:11:37.527Z,2.10
2018-11-21T22:14:06.922Z,2.10
2018-11-21T22:16:36.643Z,2.00
2018-11-21T22:19:05.918Z,2.10
2018-11-21T22:21:35.135Z,2.00
2018-11-21T22:24:08.840Z,2.00
2018-11-21T22:26:38.110Z,2.10
2018-11-21T22:29:07.437Z,2.10
2018-11-21T22:31:36.857Z,2.10
2018-11-21T22:34:06.462Z,2.10
2018-11-21T22:36:35.800Z,2.20
2018-11-21T22:39:08.692Z,2.10
2018-11-21T22:41:37.929Z,2.20
2018-11-21T22:44:07.151Z,2.10
2018-11-21T22:46:36.548Z,2.20
2018-11-21T22:49:05.899Z,2.10
2018-11-21T22:51:35.217Z,2.10
2018-11-21T22:54:04.853Z,2.00
2018-11-21T22:56:34.075Z,2.00
2018-11-21T22:59:03.383Z,2.00
2018-11-21T23:01:34.398Z,2.00
2018-11-21T23:04:03.623Z,2.00
2018-11-21T23:06:32.860Z,2.00
2018-11-21T23:09:02.395Z,2.00
2018-11-21T23:11:31.592Z,2.10
2018-11-21T23:14:00.838Z,2.00
2018-11-21T23:16:30.351Z,2.00
2018-11-21T23:18:59.660Z,2.00
2018-11-21T23:21:28.898Z,2.00
2018-11-21T23:23:58.283Z,2.00
2018-11-21T23:26:27.953Z,2.00
2018-11-21T23:28:57.184Z,2.10
2018-11-21T23:31:26.606Z,2.10
2018-11-21T23:33:55.880Z,2.00
2018-11-21T23:36:25.141Z,2.00
2018-11-21T23:38:54.599Z,2.00
2018-11-21T23:41:23.821Z,2.10
2018-11-21T23:43:53.195Z,2.10
2018-11-21T23:46:22.443Z,2.10
2018-11-21T23:48:51.761Z,2.10
2018-11-21T23:51:23.789Z,2.10
2018-11-21T23:53:53.175Z,2.10
2018-11-21T23:56:22.399Z,2.10
2018-11-21T23:58:51.643Z,1.90
